Address 0xed3fecc08788e74a7a5a345c4d8f5e35840ee00d

 
Txn Hash
Block
From
To
Value [Txn Fee]
0xd89692e275ff871a7412ed7308ec2c41f43488d5b68712696435da1a95f21bfa74036772021-05-14 13:08:0539 days 8 hrs ago0xed3fecc08788e74a7a5a345c4d8f5e35840ee00dOUT PancakeSwap: Router61.796740782 BNB0.000849245
0x6e99d87f2bb75c570ec195f76b10b2597f034f63c9119fa39c1a72fb95c77d7f74036302021-05-14 13:05:4439 days 8 hrs ago0xc6672a41331bfa24a6288ba032a8f7cafd3908b5 IN 0xed3fecc08788e74a7a5a345c4d8f5e35840ee00d61.7991185 BNB0.000105
0xc379b22c4a44567d05098199b308c93cc1771bc5359020d4796518a14ef7bed673280032021-05-11 19:00:4842 days 2 hrs ago0xed3fecc08788e74a7a5a345c4d8f5e35840ee00dOUT PancakeSwap: Router2.099906721 BNB0.002377718
0x04d025aa8c585948e61db084b5d0aed5b3a17fd012419bc85bd77c18befc08e173279462021-05-11 18:57:5742 days 2 hrs ago0xed3fecc08788e74a7a5a345c4d8f5e35840ee00dOUT PancakeSwap: Router2 BNB0.002377718
0x4d6e146664a04c8c94936f57924891cfdfe1a7ef169ecb6a2d0784e51d2b777873276892021-05-11 18:45:0342 days 2 hrs ago0xed3fecc08788e74a7a5a345c4d8f5e35840ee00dOUT PancakeSwap: Router3 BNB0.002377718
0x5d99cb374a999778d0b7f3ab361f80af14bcdc11deb6e53ec618e4b66eb550bc73276522021-05-11 18:42:4442 days 2 hrs ago0xed3fecc08788e74a7a5a345c4d8f5e35840ee00dOUT PancakeSwap: Router2 BNB0.002389898
0x768e64e2f60089f4273503e71e712fef1120d0b8492a2310168cde311950b6dd73276472021-05-11 18:42:2442 days 2 hrs ago0xed3fecc08788e74a7a5a345c4d8f5e35840ee00dOUT PancakeSwap: Router2 BNB0.002389898
0xa9e712fa9c3c4e68108b8855cf664b0a8097fcfef2f61117ab21905548b1b7e473276352021-05-11 18:41:3542 days 2 hrs ago0xed3fecc08788e74a7a5a345c4d8f5e35840ee00dOUT PancakeSwap: Router2 BNB0.00221949
0x55e86db17a8a91fb603005cd9d2c31f9ab5bab794179a2bdbab2d7925355e28873276352021-05-11 18:41:3542 days 2 hrs ago0xed3fecc08788e74a7a5a345c4d8f5e35840ee00dOUT PancakeSwap: Router2 BNB0.002377718
0x3ee247932b44754b7a1dd3e6ed416db84f0217fc5e521db6b839b59780e239fd73276302021-05-11 18:41:1242 days 2 hrs ago0xed3fecc08788e74a7a5a345c4d8f5e35840ee00dOUT PancakeSwap: Router2 BNB0.00220731
0xf567fefe78bf46fe33082bb7c40dcb388c23a3a5e7a3ab747d1ed98688585f5573276302021-05-11 18:41:1242 days 2 hrs ago0xed3fecc08788e74a7a5a345c4d8f5e35840ee00dOUT PancakeSwap: Router2 BNB0.002377718
0xa7b7f26c2a4a70c2691c89b7c1885acf9af59403de1d24fe742dec481632947d73276012021-05-11 18:39:3442 days 2 hrs ago0xed3fecc08788e74a7a5a345c4d8f5e35840ee00dOUT PancakeSwap: Router1 BNB0.00220731
0x50f2d1aafe64a41375fcd5c5c4eb68b1e98c715354be508f28d154e3d082aa4d73276012021-05-11 18:39:3442 days 2 hrs ago0xed3fecc08788e74a7a5a345c4d8f5e35840ee00dOUT PancakeSwap: Router3 BNB0.002377718
0xcd51beccf3b3daa4066661bdd63ba7c9135291ce17e9312b9ddb3bc0010ff54473275262021-05-11 18:35:1442 days 2 hrs ago0xed3fecc08788e74a7a5a345c4d8f5e35840ee00dOUT PancakeSwap: Router2 BNB0.00220731
0x9bb4ae73505bf29fa2bf911acd8d15e917a9df8115d48ac3d20f3d9a5e8a2a4873275262021-05-11 18:35:1442 days 2 hrs ago0xed3fecc08788e74a7a5a345c4d8f5e35840ee00dOUT PancakeSwap: Router2 BNB0.002587718
0x49652eea5ee78f775ff3146d7aaabcdd270203dcd6bf3b81c2ec411b53c00b1a73273322021-05-11 18:24:5342 days 2 hrs ago0xc6672a41331bfa24a6288ba032a8f7cafd3908b5 IN 0xed3fecc08788e74a7a5a345c4d8f5e35840ee00d27.1288435 BNB0.000294
0x42850f0e987312bdbbfe97de572aa8d4bd8dc0abf31dd8e221a17276c6fcc65572784542021-05-09 20:23:1144 days 1 hr ago0xed3fecc08788e74a7a5a345c4d8f5e35840ee00dOUT PancakeSwap: Router5.80676526 BNB0.000839255
0xcc5d3be3a7b3d4d6944d5ac311875f277b0bb16d536c5aa65a4b9f7a46fb6bf272784482021-05-09 20:22:5344 days 1 hr ago0xed3fecc08788e74a7a5a345c4d8f5e35840ee00dOUT PancakeSwap: Router5 BNB0.000839255
0x444dd0e0c573a9e78a615388eaa734560adc505c953ce07efc748ff95c10511c72784352021-05-09 20:22:1444 days 1 hr ago0xed3fecc08788e74a7a5a345c4d8f5e35840ee00dOUT PancakeSwap: Router5 BNB0.000839255
0xc127dd6e59d6668f8306ed13be3a2d5f7202872fdf81378cfc14263983f57ea272784302021-05-09 20:21:5944 days 1 hr ago0xed3fecc08788e74a7a5a345c4d8f5e35840ee00dOUT PancakeSwap: Router5 BNB0.000839255
0x453f193d5705fd3a22a29df613b9ce0605d51ee36617fc24b840df5883931b4072784132021-05-09 20:21:0844 days 1 hr ago0xc6672a41331bfa24a6288ba032a8f7cafd3908b5 IN 0xed3fecc08788e74a7a5a345c4d8f5e35840ee00d20.81012228 BNB0.000105
0x558c9cafe31ff153a7c606ad7da66249e511ac14215273c8f9a58c7f1cb1892272781892021-05-09 20:09:5644 days 1 hr ago0xed3fecc08788e74a7a5a345c4d8f5e35840ee00dOUT PancakeSwap: Router2.638629155 BNB0.000839255
0x52ca53ae5e4c4b4f421f4b72b2523179566d305b7bf7fd1bb4f4d6fc621720ed72781812021-05-09 20:09:3244 days 1 hr ago0xed3fecc08788e74a7a5a345c4d8f5e35840ee00dOUT PancakeSwap: Router5 BNB0.000839255
0xc021bb3831ddff3524169e1583a2485f2e4e1a9a2b24904e3efa937cbdd8afe872781702021-05-09 20:08:5944 days 1 hr ago0xed3fecc08788e74a7a5a345c4d8f5e35840ee00dOUT PancakeSwap: Router5 BNB0.000778395
0xf18f3e3f6353a6d3d9d720a0b250d1dfd18a54dd0046e50933bf037bf71abbb972781642021-05-09 20:08:4144 days 1 hr ago0xed3fecc08788e74a7a5a345c4d8f5e35840ee00dOUT PancakeSwap: Router5 BNB0.000839255
[ Download CSV Export 
Latest 6 internal transactions
Parent Txn Hash Block From To Value
0xa714df9482af0331115644edfc23dec5e1630408ce0c0d6bf9cf952c51226c1471440542021-05-05 0:50:5148 days 20 hrs ago PancakeSwap: Router v20xed3fecc08788e74a7a5a345c4d8f5e35840ee00d5.974564548621316066 BNB
0xc64eef2a89952748d029352952d1a937fc4f70a3b0b2856b33215e95a86137ae71440452021-05-05 0:50:2448 days 20 hrs ago PancakeSwap: Router v20xed3fecc08788e74a7a5a345c4d8f5e35840ee00d6.181051727790360652 BNB
0x467a7d797e19d109c858ae46c6f34a694872d5b56951b8a55146015612812fd671440292021-05-05 0:49:3648 days 20 hrs ago PancakeSwap: Router v20xed3fecc08788e74a7a5a345c4d8f5e35840ee00d5.119700656830121209 BNB
0x16edcf18d11b4060be8ca56aa19273814b361be979a24702436f6fa1957cdf6471440192021-05-05 0:49:0648 days 20 hrs ago PancakeSwap: Router v20xed3fecc08788e74a7a5a345c4d8f5e35840ee00d1.965474890420042395 BNB
0x44df285f1bd729882372c69f8d456558cb622bbad477e38fc7dc2012d5dd263e71440102021-05-05 0:48:3948 days 20 hrs ago PancakeSwap: Router v20xed3fecc08788e74a7a5a345c4d8f5e35840ee00d1.227630528617799173 BNB
0xc254b4ae9ee6593649abd60cf236dd4030853ca1b6f51295a8c734626400046671440002021-05-05 0:48:0948 days 20 hrs ago PancakeSwap: Router v20xed3fecc08788e74a7a5a345c4d8f5e35840ee00d0.237281410322249699 BNB
[ Download CSV Export 
Loading

Contract Name:
0 BNB

Compiler Version
0

Optimization Enabled:
0 BNB

Other Settings:
-NA-
Block Transaction Gas Used Reward
Age Block Fee Address BC Fee Address Voting Power Jailed Incoming
Block Uncle Number Difficulty Gas Used Reward
Loading
Loading
Make sure to use the "Vote Down" button for any spammy posts, and the "Vote Up" for interesting conversations.